Time;durP1;ratioP1;P1;durP2;ratioP2;P2;SDS_P1;SDS_P2;PMS_P1;PMS_P2;Temp;Humidity;BMP_temperature;BMP_pressure;BME280_temperature;BME280_humidity;BME280_pressure;Samples;Min_cycle;Max_cycle;Signal;HPM_P1;HPM_P2
2023/02/05 00:01:43;;;;;;;0.60;0.60;;;1.70;86.40;1.60;98137.00;;;;5057780;28;20418;-85
2023/02/05 00:04:31;;;;;;;0.73;0.73;;;2.20;85.40;1.10;98132.00;;;;5055583;28;20427;-84
2023/02/05 00:07:22;;;;;;;0.70;0.70;;;1.60;86.80;1.60;98148.00;;;;5054839;28;20483;-85
2023/02/05 00:10:11;;;;;;;0.50;0.50;;;0.50;83.20;1.50;98148.00;;;;5048815;28;20517;-84
2023/02/05 00:12:59;;;;;;;0.60;0.60;;;0.50;85.10;1.60;98141.00;;;;5054539;28;20813;-84
2023/02/05 00:15:48;;;;;;;0.53;0.53;;;0.60;82.50;1.40;98157.00;;;;5054457;28;20427;-84
2023/02/05 00:18:37;;;;;;;0.60;0.60;;;0.40;83.10;1.40;98135.00;;;;5051573;28;20513;-85
2023/02/05 00:21:26;;;;;;;0.67;0.67;;;1.30;83.90;1.50;98143.00;;;;5051793;28;20477;-84
2023/02/05 00:24:16;;;;;;;0.73;0.73;;;0.90;84.80;1.20;98145.00;;;;5055423;28;20466;-85
2023/02/05 00:27:05;;;;;;;0.93;0.90;;;1.50;86.70;1.30;98143.00;;;;5052653;28;20462;-85
2023/02/05 00:29:54;;;;;;;0.83;0.67;;;0.70;86.60;1.30;98153.00;;;;5054664;28;21005;-85
2023/02/05 00:32:42;;;;;;;0.73;0.73;;;0.90;86.40;1.30;98146.00;;;;5055812;28;22117;-85
2023/02/05 00:35:31;;;;;;;0.63;0.63;;;0.20;86.70;1.20;98156.00;;;;5057627;28;20432;-85
2023/02/05 00:38:20;;;;;;;0.63;0.63;;;0.90;88.40;1.10;98159.00;;;;5055554;28;20436;-84
2023/02/05 00:41:11;;;;;;;0.60;0.53;;;0.50;89.00;1.00;98159.00;;;;5056095;28;20427;-85
2023/02/05 00:43:59;;;;;;;0.50;0.50;;;0.90;89.30;1.10;98163.00;;;;5056135;28;20494;-85
2023/02/05 00:46:48;;;;;;;0.70;0.70;;;0.00;88.80;1.00;98156.00;;;;5044657;28;20462;-85
2023/02/05 00:49:37;;;;;;;0.60;0.60;;;0.80;90.10;1.00;98153.00;;;;5055534;28;20471;-85
2023/02/05 00:52:26;;;;;;;0.63;0.63;;;-0.10;88.80;1.10;98156.00;;;;5054870;28;20438;-85
2023/02/05 00:55:14;;;;;;;0.77;0.77;;;0.00;88.30;1.00;98160.00;;;;5056903;28;20469;-85
2023/02/05 00:58:04;;;;;;;0.60;0.60;;;1.00;89.60;1.00;98172.00;;;;5054070;28;20540;-85
2023/02/05 01:00:53;;;;;;;0.50;0.50;;;2.40;90.60;0.90;98162.00;;;;5057185;28;20438;-85
2023/02/05 01:03:42;;;;;;;1.87;0.70;;;1.10;90.80;0.80;98169.00;;;;5053762;28;20428;-86
2023/02/05 01:06:31;;;;;;;1.90;0.70;;;-0.40;94.70;0.70;98156.00;;;;5056287;28;21036;-85
2023/02/05 01:09:20;;;;;;;0.50;0.50;;;0.70;91.20;0.70;98164.00;;;;5052780;28;20467;-85
2023/02/05 01:12:08;;;;;;;0.77;0.77;;;0.60;90.50;0.70;98170.00;;;;5048192;28;20436;-87
2023/02/05 01:14:59;;;;;;;0.70;0.70;;;-0.30;90.70;0.60;98163.00;;;;5057116;28;20431;-86
2023/02/05 01:17:48;;;;;;;1.33;0.80;;;1.30;91.40;0.50;98170.00;;;;5054526;28;20466;-85
2023/02/05 01:20:37;;;;;;;0.60;0.60;;;-0.40;90.40;0.50;98175.00;;;;5044511;28;20439;-85
2023/02/05 01:23:26;;;;;;;0.80;0.80;;;0.50;91.10;0.50;98158.00;;;;5052047;28;20439;-85
2023/02/05 01:26:15;;;;;;;0.80;0.80;;;-0.50;89.40;0.70;98164.00;;;;5044305;28;20455;-85
2023/02/05 01:29:03;;;;;;;0.70;0.70;;;0.50;89.90;0.50;98153.00;;;;5043556;28;20430;-85
2023/02/05 01:31:54;;;;;;;0.50;0.50;;;0.60;88.80;0.80;98161.00;;;;5058173;28;20935;-85
2023/02/05 01:34:43;;;;;;;2.03;0.90;;;0.60;89.30;0.90;98167.00;;;;5058263;28;20433;-86
2023/02/05 01:37:31;;;;;;;0.90;0.90;;;-0.20;85.30;1.10;98166.00;;;;5056979;28;20985;-86
2023/02/05 01:40:21;;;;;;;1.20;1.10;;;0.00;86.00;1.10;98169.00;;;;5062115;28;20434;-85
2023/02/05 01:43:13;;;;;;;1.17;0.90;;;0.00;86.40;1.00;98159.00;;;;5061143;28;20807;-86
2023/02/05 01:46:21;;;;;;;1.60;0.70;;;0.70;87.20;0.70;98152.00;;;;5060405;28;20428;-86
2023/02/05 01:49:17;;;;;;;1.03;0.73;;;1.10;88.10;0.90;98154.00;;;;5056661;28;20431;-85
2023/02/05 01:52:09;;;;;;;1.70;0.80;;;-0.10;87.80;0.90;98151.00;;;;5054731;28;20436;-86
2023/02/05 01:54:58;;;;;;;1.20;1.10;;;0.80;89.40;0.80;98160.00;;;;5049530;28;20431;-85
2023/02/05 01:57:47;;;;;;;0.70;0.70;;;-0.20;88.40;0.80;98144.00;;;;5056770;28;20965;-85
2023/02/05 02:00:36;;;;;;;1.03;1.03;;;1.50;89.70;0.70;98153.00;;;;5057991;28;20525;-85
2023/02/05 02:03:27;;;;;;;0.80;0.80;;;0.50;89.90;0.30;98138.00;;;;5062559;28;20455;-86
2023/02/05 02:06:18;;;;;;;0.70;0.70;;;-0.30;91.80;0.50;98135.00;;;;5057304;28;20435;-85
2023/02/05 02:09:07;;;;;;;0.80;0.80;;;-0.40;88.20;0.60;98129.00;;;;5058710;28;20493;-85
2023/02/05 02:11:58;;;;;;;1.27;1.17;;;0.20;89.20;0.60;98129.00;;;;5059678;28;20435;-85
2023/02/05 02:14:51;;;;;;;0.70;0.70;;;1.40;87.10;0.70;98127.00;;;;5056646;28;20838;-85
2023/02/05 02:17:44;;;;;;;0.60;0.60;;;0.40;88.50;0.80;98134.00;;;;5051775;28;20450;-86
2023/02/05 02:20:37;;;;;;;0.63;0.63;;;0.70;86.40;0.70;98131.00;;;;5042048;28;20428;-86
2023/02/05 02:23:38;;;;;;;0.80;0.80;;;0.60;86.50;0.80;98117.00;;;;5048650;28;20486;-85
2023/02/05 02:26:46;;;;;;;0.70;0.70;;;-0.10;93.10;0.70;98114.00;;;;5050847;28;20426;-85
2023/02/05 02:29:43;;;;;;;0.70;0.70;;;-0.30;87.20;0.60;98126.00;;;;5048269;28;20431;-85
2023/02/05 02:32:37;;;;;;;0.70;0.70;;;0.40;88.60;0.70;98125.00;;;;5051251;28;20439;-85
2023/02/05 02:35:32;;;;;;;0.50;0.50;;;0.60;86.30;0.30;98112.00;;;;5056040;28;20448;-85
2023/02/05 02:38:30;;;;;;;0.50;0.50;;;0.70;88.10;0.30;98112.00;;;;5053983;28;20528;-85
2023/02/05 02:41:25;;;;;;;1.23;0.70;;;-0.50;87.70;0.60;98127.00;;;;5056242;28;20451;-86
2023/02/05 02:44:19;;;;;;;0.80;0.70;;;0.80;87.60;0.70;98118.00;;;;5055654;28;20427;-85
2023/02/05 02:47:15;;;;;;;4.67;0.90;;;0.60;84.20;0.60;98130.00;;;;5057739;28;20455;-85
2023/02/05 02:50:09;;;;;;;1.77;0.80;;;1.30;86.70;0.80;98131.00;;;;5058652;28;20471;-85
2023/02/05 02:52:59;;;;;;;1.07;0.93;;;;;0.80;98134.00;;;;5064140;28;20424;-85
2023/02/05 02:55:50;;;;;;;1.27;1.17;;;-0.30;84.70;0.60;98133.00;;;;5050152;28;20439;-86
2023/02/05 02:58:44;;;;;;;0.73;0.70;;;0.60;87.40;0.50;98138.00;;;;5065883;28;20463;-85
2023/02/05 03:01:37;;;;;;;0.60;0.60;;;-0.40;87.80;0.50;98139.00;;;;5074863;28;20427;-85
2023/02/05 03:04:33;;;;;;;0.60;0.60;;;0.30;88.60;0.40;98146.00;;;;5052378;28;20486;-86
2023/02/05 03:07:28;;;;;;;0.67;0.67;;;-0.50;89.20;0.40;98138.00;;;;5064780;28;20436;-86
2023/02/05 03:10:24;;;;;;;0.60;0.60;;;0.00;88.90;0.40;98129.00;;;;5060806;28;21043;-87
2023/02/05 03:13:14;;;;;;;0.80;0.80;;;-0.60;90.20;0.40;98127.00;;;;5062483;28;20435;-86
2023/02/05 03:16:02;;;;;;;1.43;0.60;;;-0.60;90.30;0.40;98119.00;;;;5055178;28;20965;-86
2023/02/05 03:18:52;;;;;;;0.70;0.70;;;0.20;90.20;0.40;98128.00;;;;5063230;28;20416;-85
2023/02/05 03:21:46;;;;;;;0.50;0.50;;;-0.70;89.70;0.20;98121.00;;;;5055432;28;20467;-86
2023/02/05 03:24:36;;;;;;;0.50;0.50;;;-0.70;90.30;0.20;98133.00;;;;5054517;28;20427;-85
2023/02/05 03:27:25;;;;;;;0.80;0.80;;;-0.80;86.60;0.40;98127.00;;;;5050067;28;20448;-86
2023/02/05 03:30:15;;;;;;;0.63;0.63;;;-0.70;84.80;0.60;98132.00;;;;5057677;28;20483;-86
2023/02/05 03:33:26;;;;;;;0.53;0.53;;;-0.70;93.50;0.50;98126.00;;;;5051427;28;20490;-86
2023/02/05 03:36:22;;;;;;;0.70;0.70;;;0.50;87.50;0.50;98124.00;;;;5053999;28;20442;-85
2023/02/05 03:39:28;;;;;;;0.97;0.97;;;-0.60;85.80;0.80;98122.00;;;;5058763;28;20867;-86
2023/02/05 03:42:32;;;;;;;0.73;0.73;;;-0.50;83.50;0.70;98129.00;;;;5059279;28;20446;-85
2023/02/05 03:45:36;;;;;;;0.73;0.73;;;0.90;86.10;0.60;98146.00;;;;5058935;28;20868;-85
2023/02/05 03:48:42;;;;;;;0.73;0.57;;;-0.50;85.20;0.40;98118.00;;;;5053757;28;20974;-85
2023/02/05 03:51:38;;;;;;;0.60;0.60;;;-0.40;83.60;0.80;98129.00;;;;5047777;28;21040;-86
2023/02/05 03:54:37;;;;;;;0.60;0.60;;;-0.30;83.10;0.80;98136.00;;;;5064377;28;20840;-85
2023/02/05 03:57:31;;;;;;;0.50;0.50;;;-0.30;84.00;0.80;98132.00;;;;5064724;28;20513;-86
2023/02/05 04:00:21;;;;;;;0.50;0.50;;;-0.30;83.30;0.80;98135.00;;;;5065056;28;20442;-86
2023/02/05 04:03:10;;;;;;;7.10;0.90;;;-0.30;82.90;0.80;98119.00;;;;5060065;28;20439;-86
2023/02/05 04:05:59;;;;;;;1.47;0.80;;;0.50;83.80;0.70;98131.00;;;;5059497;28;21221;-85
2023/02/05 04:08:47;;;;;;;0.70;0.70;;;0.80;84.10;0.70;98126.00;;;;5057043;28;20799;-86
2023/02/05 04:11:37;;;;;;;0.67;0.67;;;-0.30;83.80;0.50;98131.00;;;;5048563;28;20506;-86
2023/02/05 04:14:26;;;;;;;0.73;0.73;;;-0.40;86.20;0.40;98135.00;;;;5049514;28;20495;-85
2023/02/05 04:17:15;;;;;;;0.83;0.83;;;0.40;87.00;0.60;98131.00;;;;5053970;28;20443;-84
2023/02/05 04:20:04;;;;;;;0.90;0.90;;;0.30;83.70;0.80;98141.00;;;;5053729;28;20430;-85
2023/02/05 04:22:53;;;;;;;3.50;0.87;;;-0.40;82.20;0.70;98142.00;;;;5063025;28;20424;-85
2023/02/05 04:25:42;;;;;;;0.80;0.77;;;0.50;84.70;0.70;98139.00;;;;5059172;28;20489;-85
2023/02/05 04:28:32;;;;;;;0.60;0.60;;;0.70;84.00;0.50;98144.00;;;;5062372;28;20800;-85
2023/02/05 04:31:21;;;;;;;1.37;1.00;;;1.00;85.30;0.40;98143.00;;;;5054537;28;20471;-86
2023/02/05 04:34:09;;;;;;;0.73;0.73;;;0.80;86.30;0.30;98146.00;;;;5062915;28;20974;-84
2023/02/05 04:36:58;;;;;;;0.67;0.67;;;-0.60;87.00;0.20;98135.00;;;;5064519;28;20884;-86
2023/02/05 04:39:48;;;;;;;0.63;0.50;;;0.30;89.20;0.00;98152.00;;;;5063446;28;20466;-86
2023/02/05 04:42:37;;;;;;;0.50;0.50;;;0.80;89.50;0.10;98140.00;;;;5062438;28;20461;-85
2023/02/05 04:45:29;;;;;;;0.70;0.70;;;-0.80;88.50;-0.10;98144.00;;;;5062691;28;20427;-86
2023/02/05 04:48:20;;;;;;;3.30;0.80;;;-0.90;90.20;-0.10;98142.00;;;;5062122;28;20452;-86
2023/02/05 04:51:11;;;;;;;0.70;0.70;;;-0.10;90.80;-0.10;98141.00;;;;5061707;28;20459;-84
2023/02/05 04:53:59;;;;;;;0.90;0.90;;;-1.00;90.70;-0.10;98148.00;;;;5062476;28;20869;-86
2023/02/05 04:56:48;;;;;;;0.70;0.70;;;-0.50;91.50;-0.10;98156.00;;;;5062553;28;20500;-86
2023/02/05 04:59:37;;;;;;;0.83;0.83;;;-0.90;91.60;-0.10;98159.00;;;;5067841;28;20462;-86
2023/02/05 05:02:27;;;;;;;0.73;0.73;;;-1.10;91.40;-0.30;98147.00;;;;5065026;28;20458;-85
2023/02/05 05:05:16;;;;;;;0.63;0.63;;;-0.90;92.10;-0.30;98149.00;;;;5063743;28;20435;-84
2023/02/05 05:08:05;;;;;;;0.70;0.70;;;0.00;92.50;-0.30;98166.00;;;;5062536;28;20950;-85
2023/02/05 05:10:54;;;;;;;1.00;1.00;;;-1.30;92.30;-0.40;98167.00;;;;5061740;28;20938;-85
2023/02/05 05:13:43;;;;;;;0.67;0.67;;;-1.30;93.10;-0.40;98173.00;;;;5063146;28;20461;-85
2023/02/05 05:16:31;;;;;;;0.80;0.80;;;-1.30;97.90;-0.40;98167.00;;;;5061497;28;20423;-86
2023/02/05 05:19:22;;;;;;;1.30;0.77;;;-1.20;93.50;-0.50;98172.00;;;;5061982;28;20451;-85
2023/02/05 05:22:10;;;;;;;0.77;0.77;;;-1.40;93.90;-0.50;98160.00;;;;5063397;28;20504;-86
2023/02/05 05:24:59;;;;;;;0.60;0.60;;;-1.40;94.00;-0.50;98169.00;;;;5058984;28;20446;-85
2023/02/05 05:27:48;;;;;;;1.57;1.20;;;-1.30;94.00;-0.70;98154.00;;;;5061815;28;20462;-85
2023/02/05 05:30:39;;;;;;;0.77;0.77;;;-1.50;93.90;-0.60;98162.00;;;;5064145;28;20881;-85
2023/02/05 05:33:28;;;;;;;7.27;5.37;;;-1.50;94.40;-0.90;98177.00;;;;5072128;28;20443;-86
2023/02/05 05:36:18;;;;;;;1.53;1.43;;;-1.60;93.60;-1.00;98186.00;;;;5064685;28;20439;-85
2023/02/05 05:45:34;;;;;;;8.53;7.93;;;-1.70;93.70;-1.10;98199.00;;;;5036012;28;20432;-85
2023/02/05 05:48:23;;;;;;;7.87;7.30;;;-1.10;94.10;-1.10;98196.00;;;;5055385;28;20466;-86
2023/02/05 05:51:11;;;;;;;2.10;2.00;;;-1.80;93.70;-1.30;98188.00;;;;5062229;28;20915;-86
2023/02/05 05:54:02;;;;;;;1.70;1.57;;;-1.90;93.80;-1.20;98203.00;;;;5061092;28;20459;-86
2023/02/05 05:56:50;;;;;;;0.60;0.60;;;-1.90;93.70;-1.10;98209.00;;;;5063455;28;20463;-85
2023/02/05 05:59:39;;;;;;;1.10;1.10;;;-1.90;93.40;-1.10;98205.00;;;;5062949;28;20431;-85
2023/02/05 06:02:28;;;;;;;0.73;0.73;;;-1.20;93.80;-1.10;98202.00;;;;5069474;28;20864;-84
2023/02/05 06:05:17;;;;;;;0.67;0.67;;;-4.40;92.60;-1.40;98209.00;;;;5063244;28;20432;-86
2023/02/05 06:08:06;;;;;;;0.60;0.60;;;-1.90;93.90;-2.00;98207.00;;;;5067988;28;20513;-87
2023/02/05 06:10:56;;;;;;;1.07;0.80;;;-0.80;94.30;-1.90;98199.00;;;;5067824;28;20438;-86
2023/02/05 06:13:45;;;;;;;0.60;0.60;;;0.00;94.70;-1.40;98205.00;;;;5062628;28;20459;-86
2023/02/05 06:16:34;;;;;;;0.60;0.60;;;-2.40;98.90;-1.20;98208.00;;;;5063049;28;22049;-87
2023/02/05 06:19:23;;;;;;;1.37;1.27;;;-0.20;95.30;-1.10;98217.00;;;;5060059;28;20427;-86
2023/02/05 06:22:12;;;;;;;0.93;0.93;;;-2.00;94.50;-1.40;98222.00;;;;5066503;28;20522;-86
2023/02/05 06:25:01;;;;;;;0.93;0.93;;;-1.10;95.00;-1.80;98210.00;;;;5071321;28;21021;-86
2023/02/05 06:27:51;;;;;;;1.60;1.50;;;-2.10;94.90;-1.90;98216.00;;;;5080608;28;20446;-88
2023/02/05 06:30:40;;;;;;;0.97;0.97;;;-2.20;95.00;-1.80;98224.00;;;;5068720;28;20435;-86
2023/02/05 06:33:29;;;;;;;1.20;1.00;;;-1.80;95.40;-1.80;98227.00;;;;5065288;28;20467;-87
2023/02/05 06:36:17;;;;;;;1.40;1.37;;;-2.30;95.40;-1.70;98230.00;;;;5069814;28;20434;-87
2023/02/05 06:39:06;;;;;;;3.40;1.20;;;-1.50;95.80;-1.40;98236.00;;;;5064930;28;20488;-86
2023/02/05 06:41:55;;;;;;;0.70;0.70;;;-2.30;95.60;-1.40;98239.00;;;;5058403;28;20489;-87
2023/02/05 06:44:45;;;;;;;2.70;1.10;;;-1.10;96.00;-1.40;98236.00;;;;5062538;28;20453;-88
2023/02/05 06:47:33;;;;;;;1.00;0.90;;;-2.30;95.90;-1.40;98245.00;;;;5066179;28;20891;-88
2023/02/05 06:50:22;;;;;;;1.00;1.00;;;-2.30;96.00;-1.40;98245.00;;;;5058724;28;20421;-87
2023/02/05 06:53:11;;;;;;;1.53;1.43;;;-2.30;95.90;-1.50;98245.00;;;;5059409;28;20982;-86
2023/02/05 06:56:00;;;;;;;1.60;1.50;;;-2.30;96.20;-1.30;98239.00;;;;5061419;28;20423;-87
2023/02/05 06:58:49;;;;;;;0.90;0.90;;;-2.30;96.40;-1.30;98248.00;;;;5062314;28;20458;-87
2023/02/05 07:01:39;;;;;;;1.97;1.20;;;-2.30;96.60;-1.60;98242.00;;;;5066239;28;20427;-86
2023/02/05 07:04:29;;;;;;;0.97;0.97;;;-2.30;96.90;-1.30;98258.00;;;;5062593;28;20444;-87
2023/02/05 07:07:18;;;;;;;6.40;5.70;;;-0.90;97.60;-1.20;98264.00;;;;5062364;28;20470;-88
2023/02/05 07:10:07;;;;;;;3.90;3.53;;;-2.20;97.30;-0.90;98274.00;;;;5061984;28;20431;-86
2023/02/05 07:12:56;;;;;;;1.50;1.40;;;-2.20;97.50;-0.80;98275.00;;;;5066716;28;20467;-87
2023/02/05 07:15:46;;;;;;;5.63;1.97;;;-2.10;97.80;-0.70;98269.00;;;;5074849;28;20828;-86
2023/02/05 07:18:36;;;;;;;1.83;1.40;;;-2.00;98.30;-0.60;98290.00;;;;5073846;28;20447;-88
2023/02/05 07:21:25;;;;;;;1.87;1.73;;;-1.80;98.40;-0.30;98289.00;;;;5066885;28;20439;-87
2023/02/05 07:24:14;;;;;;;2.37;1.83;;;-1.60;98.40;-0.30;98294.00;;;;5068027;28;20440;-87
2023/02/05 07:27:03;;;;;;;1.00;1.00;;;-0.40;98.80;-0.70;98287.00;;;;5065018;28;20517;-86
2023/02/05 07:29:52;;;;;;;2.60;1.50;;;-1.40;98.00;-0.80;98303.00;;;;5077223;28;20827;-87
2023/02/05 07:32:41;;;;;;;2.13;1.93;;;-2.70;97.50;-0.30;98299.00;;;;5063073;28;20470;-86
2023/02/05 07:35:31;;;;;;;1.73;1.63;;;-0.90;98.40;-0.50;98299.00;;;;5063049;28;20455;-86
2023/02/05 07:38:21;;;;;;;1.00;1.00;;;-1.30;98.70;0.00;98308.00;;;;5060709;28;20448;-87
2023/02/05 07:41:11;;;;;;;1.53;1.43;;;-1.30;99.00;0.10;98327.00;;;;5065656;28;20428;-86
2023/02/05 07:44:00;;;;;;;3.87;2.43;;;0.60;99.50;0.10;98319.00;;;;5065783;28;20435;-87
2023/02/05 07:46:49;;;;;;;1.17;1.10;;;0.60;99.70;0.10;98323.00;;;;5065794;28;20459;-87
2023/02/05 07:49:38;;;;;;;1.90;1.80;;;0.20;99.50;0.10;98327.00;;;;5065727;28;20431;-86
2023/02/05 07:52:28;;;;;;;1.33;1.23;;;1.00;99.80;-0.20;98315.00;;;;5066376;28;20470;-86
2023/02/05 07:55:17;;;;;;;1.17;1.13;;;1.30;99.80;0.10;98317.00;;;;5066165;28;20431;-86
2023/02/05 07:58:05;;;;;;;1.67;1.57;;;-0.80;98.80;-0.20;98317.00;;;;5067761;28;20490;-85
2023/02/05 08:00:54;;;;;;;1.40;1.30;;;-0.30;99.10;0.20;98326.00;;;;5077195;28;20771;-86
2023/02/05 08:03:43;;;;;;;1.80;1.57;;;-0.80;98.90;0.10;98335.00;;;;5074947;28;20421;-86
2023/02/05 08:06:33;;;;;;;1.53;1.53;;;-0.70;99.90;0.40;98326.00;;;;5076878;28;20433;-86
2023/02/05 08:09:23;;;;;;;2.13;1.70;;;-0.70;99.20;0.80;98335.00;;;;5071435;28;20423;-86
2023/02/05 08:12:11;;;;;;;2.67;1.60;;;0.40;99.40;0.90;98335.00;;;;5067266;28;20882;-86
2023/02/05 08:15:00;;;;;;;5.23;2.70;;;-0.50;98.90;1.10;98331.00;;;;5065944;28;20435;-87
2023/02/05 08:17:49;;;;;;;6.30;1.80;;;0.60;99.20;1.00;98336.00;;;;5064683;28;20458;-86
2023/02/05 08:20:38;;;;;;;1.87;1.77;;;-0.30;98.90;0.40;98319.00;;;;5065360;28;20493;-87
2023/02/05 08:23:26;;;;;;;1.73;1.63;;;0.80;98.30;0.50;98340.00;;;;5060929;28;20476;-87
2023/02/05 08:26:17;;;;;;;5.57;1.77;;;-0.30;98.20;0.90;98338.00;;;;5056022;28;20497;-87
2023/02/05 08:29:07;;;;;;;1.40;1.30;;;0.60;98.50;0.40;98334.00;;;;5061189;28;20435;-87
2023/02/05 08:31:55;;;;;;;1.63;1.53;;;0.40;98.80;1.10;98335.00;;;;5050506;28;20766;-86
2023/02/05 08:34:44;;;;;;;1.47;1.37;;;-0.20;99.00;1.40;98343.00;;;;5056936;28;20450;-87
2023/02/05 08:37:33;;;;;;;1.83;1.70;;;1.30;99.60;1.40;98341.00;;;;5058994;28;20443;-87
2023/02/05 08:40:22;;;;;;;2.20;2.00;;;0.60;99.20;1.60;98334.00;;;;5060914;28;20415;-87
2023/02/05 08:43:13;;;;;;;3.10;1.77;;;0.50;99.20;1.30;98333.00;;;;5058115;28;20420;-87
2023/02/05 08:46:04;;;;;;;4.30;2.10;;;0.20;98.80;1.10;98331.00;;;;5059995;28;20447;-86
2023/02/05 08:48:53;;;;;;;3.80;1.93;;;0.30;98.70;0.70;98328.00;;;;5063948;28;20443;-86
2023/02/05 08:51:42;;;;;;;1.43;0.93;;;1.30;98.90;0.90;98325.00;;;;5063464;28;20434;-87
2023/02/05 08:54:30;;;;;;;4.13;2.07;;;1.70;99.30;1.10;98326.00;;;;5057213;28;20459;-87
2023/02/05 08:57:19;;;;;;;1.87;1.27;;;1.10;99.00;1.40;98322.00;;;;5070506;28;20455;-86
2023/02/05 09:00:12;;;;;;;1.33;1.20;;;0.20;98.80;1.00;98322.00;;;;5066843;28;20428;-86
2023/02/05 09:03:01;;;;;;;0.93;0.93;;;1.90;99.10;0.80;98313.00;;;;5053936;28;20450;-86
2023/02/05 09:05:49;;;;;;;2.33;1.30;;;0.30;98.40;0.90;98303.00;;;;5059402;28;20416;-86
2023/02/05 09:08:38;;;;;;;1.57;1.47;;;0.20;98.80;0.50;98311.00;;;;5059655;28;20538;-86
2023/02/05 09:11:29;;;;;;;1.73;1.63;;;0.60;99.00;0.80;98308.00;;;;5061502;28;20436;-86
2023/02/05 09:14:17;;;;;;;2.73;1.67;;;0.50;99.40;1.10;98316.00;;;;5059788;28;21051;-86
2023/02/05 09:17:13;;;;;;;4.77;1.50;;;1.60;99.90;1.90;98329.00;;;;5052804;28;20467;-86
2023/02/05 09:20:02;;;;;;;2.27;1.53;;;0.40;99.90;1.60;98321.00;;;;5054215;28;20447;-87
2023/02/05 09:22:52;;;;;;;1.13;1.03;;;2.30;99.60;1.40;98325.00;;;;5057245;28;20426;-85
2023/02/05 09:25:42;;;;;;;4.43;1.80;;;0.60;98.70;1.50;98328.00;;;;5065473;28;20457;-86
2023/02/05 09:28:31;;;;;;;1.33;1.23;;;;;1.80;98323.00;;;;5073985;28;20452;-86
2023/02/05 09:31:21;;;;;;;1.40;1.10;;;0.70;98.60;1.40;98320.00;;;;5052299;28;20478;-86
2023/02/05 09:34:11;;;;;;;2.33;1.37;;;1.30;99.10;1.90;98331.00;;;;5058351;28;20467;-86
2023/02/05 09:37:00;;;;;;;1.20;1.20;;;1.80;99.50;1.30;98318.00;;;;5055333;28;20562;-86
2023/02/05 09:39:49;;;;;;;3.13;2.17;;;1.90;98.80;2.70;98333.00;;;;5054645;28;20803;-86
2023/02/05 09:43:05;;;;;;;1.67;1.57;;;1.10;99.20;3.30;98342.00;;;;5055424;28;20435;-87
2023/02/05 09:46:01;;;;;;;1.87;1.77;;;2.00;99.40;3.40;98337.00;;;;5059396;28;20852;-86
2023/02/05 09:48:57;;;;;;;1.67;1.57;;;1.90;98.40;3.70;98338.00;;;;5058820;28;20450;-87
2023/02/05 09:51:50;;;;;;;5.30;2.03;;;2.00;98.00;3.40;98342.00;;;;5056908;28;20473;-86
2023/02/05 09:54:44;;;;;;;1.60;1.50;;;2.20;97.00;4.00;98354.00;;;;5054405;28;20530;-86
2023/02/05 09:57:37;;;;;;;4.37;2.07;;;2.30;97.40;3.90;98351.00;;;;5057128;28;20451;-85
2023/02/05 10:00:30;;;;;;;2.53;1.50;;;2.40;96.70;3.90;98356.00;;;;5057281;28;20462;-86
2023/02/05 10:03:28;;;;;;;2.40;1.40;;;2.50;96.60;3.30;98350.00;;;;5064837;28;20431;-88
2023/02/05 10:06:59;;;;;;;2.10;1.20;;;2.50;96.10;3.70;98341.00;;;;5060862;28;20944;-87
2023/02/05 10:10:25;;;;;;;1.67;1.57;;;2.50;96.20;3.60;98330.00;;;;5043393;28;20910;-88
2023/02/05 10:13:30;;;;;;;1.50;1.23;;;2.50;95.10;3.80;98331.00;;;;5060893;28;20435;-87
2023/02/05 10:16:44;;;;;;;1.60;1.50;;;2.50;99.90;4.30;98331.00;;;;5054834;28;20411;-86
2023/02/05 10:20:00;;;;;;;1.67;1.30;;;2.70;95.90;4.60;98322.00;;;;5054881;28;20466;-88
2023/02/05 10:23:12;;;;;;;3.03;2.07;;;2.80;95.80;4.40;98315.00;;;;5062851;28;20431;-88
2023/02/05 10:26:10;;;;;;;2.80;1.90;;;3.00;95.20;4.80;98313.00;;;;5058474;28;20431;-88
2023/02/05 10:29:20;;;;;;;1.67;1.53;;;4.30;95.40;4.90;98332.00;;;;5052861;28;21016;-88
2023/02/05 10:32:21;;;;;;;1.20;1.20;;;3.40;94.90;3.90;98293.00;;;;5064756;28;20462;-86
2023/02/05 10:35:23;;;;;;;2.50;1.63;;;4.30;94.30;2.90;98280.00;;;;5076189;28;20459;-87
2023/02/05 10:38:19;;;;;;;1.40;1.40;;;3.00;93.70;3.50;98274.00;;;;5063326;28;20462;-86
2023/02/05 10:41:17;;;;;;;2.33;2.17;;;2.70;94.50;3.80;98266.00;;;;5066287;28;20901;-87
2023/02/05 10:44:15;;;;;;;0.83;0.83;;;2.80;94.70;3.80;98264.00;;;;5058150;28;20445;-86
2023/02/05 10:47:18;;;;;;;2.63;1.70;;;3.40;93.30;4.00;98260.00;;;;5063190;28;20454;-87
2023/02/05 10:50:20;;;;;;;2.00;1.80;;;3.90;92.70;3.40;98245.00;;;;5063096;28;20227;-87
2023/02/05 10:53:08;;;;;;;4.60;2.20;;;5.10;92.10;4.40;98248.00;;;;5066476;28;20955;-87
2023/02/05 10:56:00;;;;;;;1.87;1.60;;;5.30;92.20;4.40;98240.00;;;;5079960;28;20431;-87
2023/02/05 10:58:54;;;;;;;1.50;1.40;;;5.10;91.00;5.20;98246.00;;;;5068002;28;20204;-86
2023/02/05 11:01:43;;;;;;;4.77;2.10;;;5.60;89.30;5.20;98247.00;;;;5077701;28;20282;-87
2023/02/05 11:04:39;;;;;;;1.43;1.20;;;5.80;86.90;5.70;98230.00;;;;5078431;28;20234;-86
2023/02/05 11:07:34;;;;;;;3.13;1.90;;;6.10;87.20;5.90;98228.00;;;;5058065;28;20235;-86
2023/02/05 11:10:25;;;;;;;3.20;1.57;;;6.20;87.00;6.60;98230.00;;;;5055186;28;20595;-86
2023/02/05 11:13:20;;;;;;;2.27;1.27;;;6.40;86.20;6.90;98216.00;;;;5054014;28;20196;-87
2023/02/05 11:16:11;;;;;;;1.63;1.53;;;6.60;84.70;6.40;98205.00;;;;5034189;28;20205;-86
2023/02/05 11:19:01;;;;;;;1.93;1.80;;;6.80;82.00;7.10;98209.00;;;;5047940;28;20698;-85
2023/02/05 11:21:54;;;;;;;6.63;1.90;;;6.90;81.80;8.20;98223.00;;;;5046530;28;20690;-86
2023/02/05 11:24:43;;;;;;;4.13;1.60;;;7.10;82.90;8.20;98210.00;;;;5055058;28;20212;-86
2023/02/05 11:27:32;;;;;;;6.07;1.50;;;7.40;79.40;8.50;98212.00;;;;5045021;28;20233;-85
2023/02/05 11:30:29;;;;;;;2.17;1.77;;;7.50;79.70;9.30;98221.00;;;;5043753;28;20204;-86
2023/02/05 11:33:39;;;;;;;2.07;1.87;;;7.90;80.30;8.60;98203.00;;;;5058593;28;20684;-87
2023/02/05 11:36:28;;;;;;;2.50;1.57;;;8.00;77.90;7.00;98176.00;;;;5064077;28;20201;-87
2023/02/05 11:39:32;;;;;;;1.30;1.20;;;7.90;74.80;7.60;98194.00;;;;5063937;28;20255;-86
2023/02/05 11:42:25;;;;;;;2.80;1.20;;;7.40;75.70;9.00;98198.00;;;;5052854;28;20201;-86
2023/02/05 11:45:18;;;;;;;3.33;2.30;;;7.50;77.10;9.50;98213.00;;;;5051113;28;20205;-88
2023/02/05 11:48:26;;;;;;;2.30;1.60;;;7.90;76.30;9.20;98203.00;;;;5039153;28;20228;-87
2023/02/05 11:51:36;;;;;;;1.93;1.57;;;8.40;73.50;9.10;98189.00;;;;5055038;28;20262;-86
2023/02/05 11:54:30;;;;;;;2.63;1.30;;;8.40;72.30;8.90;98193.00;;;;5050854;28;20216;-87
2023/02/05 11:57:34;;;;;;;2.37;1.30;;;8.50;71.30;9.70;98193.00;;;;5051525;28;20216;-86
2023/02/05 12:00:24;;;;;;;1.40;1.30;;;8.50;72.80;8.20;98177.00;;;;5049305;28;20257;-85
2023/02/05 12:03:18;;;;;;;2.40;1.50;;;8.60;69.50;9.50;98196.00;;;;5051079;28;20201;-86
2023/02/05 12:06:21;;;;;;;1.60;1.27;;;8.50;69.40;8.60;98180.00;;;;5051016;28;20223;-86
2023/02/05 12:09:17;;;;;;;2.40;1.70;;;8.60;70.00;10.30;98188.00;;;;5048344;28;20192;-85
2023/02/05 12:12:17;;;;;;;2.43;1.57;;;8.70;70.10;10.50;98185.00;;;;5053769;28;20204;-86
2023/02/05 12:15:16;;;;;;;1.73;1.43;;;9.10;69.90;8.80;98175.00;;;;5054123;28;20239;-87
2023/02/05 12:18:22;;;;;;;3.27;1.93;;;9.10;66.60;8.10;98165.00;;;;5062606;28;20234;-86
2023/02/05 12:21:25;;;;;;;4.20;1.60;;;9.00;64.70;9.70;98154.00;;;;5056362;28;20193;-86
2023/02/05 12:24:47;;;;;;;1.33;1.17;;;8.70;66.80;10.00;98157.00;;;;5057378;28;20196;-87
2023/02/05 12:27:54;;;;;;;1.17;1.07;;;8.80;67.10;9.50;98152.00;;;;5057171;28;20692;-87
2023/02/05 12:30:58;;;;;;;2.40;1.47;;;9.20;68.30;8.50;98144.00;;;;5056900;28;20215;-87
2023/02/05 12:34:13;;;;;;;2.87;1.67;;;9.20;63.30;9.90;98156.00;;;;5052613;28;20199;-87
2023/02/05 12:37:20;;;;;;;1.60;1.30;;;9.40;64.30;9.80;98146.00;;;;5057672;28;20725;-85
2023/02/05 12:40:28;;;;;;;1.37;1.27;;;9.50;61.10;9.70;98146.00;;;;5047229;28;20204;-85
2023/02/05 12:43:33;;;;;;;4.03;1.00;;;9.80;59.70;10.10;98138.00;;;;5052833;28;20726;-85
2023/02/05 12:46:42;;;;;;;1.43;1.00;;;9.90;59.90;11.80;98138.00;;;;5050379;28;20211;-86
2023/02/05 12:50:01;;;;;;;1.77;0.97;;;9.90;57.60;11.80;98147.00;;;;5046571;28;20860;-88
2023/02/05 12:53:10;;;;;;;1.20;1.10;;;10.30;57.60;10.70;98129.00;;;;5037275;28;20201;-84
2023/02/05 12:56:30;;;;;;;1.23;1.10;;;10.70;56.70;9.70;98124.00;;;;5056290;28;20232;-84
2023/02/05 12:59:36;;;;;;;1.03;0.93;;;10.60;54.60;10.70;98133.00;;;;5049642;28;20203;-85
2023/02/05 13:02:36;;;;;;;1.60;1.00;;;10.40;56.10;12.40;98133.00;;;;5048542;28;20204;-85
2023/02/05 13:05:31;;;;;;;1.17;0.90;;;10.90;55.80;13.30;98141.00;;;;5050237;28;20208;-86
2023/02/05 13:08:41;;;;;;;1.30;1.20;;;11.30;55.30;14.20;98138.00;;;;5040510;28;20224;-87